Time;durP1;ratioP1;P1;durP2;ratioP2;P2;SDS_P1;SDS_P2;PMS_P1;PMS_P2;Temp;Humidity;BMP_temperature;BMP_pressure;BME280_temperature;BME280_humidity;BME280_pressure;Samples;Min_cycle;Max_cycle;Signal;HPM_P1;HPM_P2
2022/01/27 00:05:07;;;;;;;37.28;14.38;;;1.10;99.90;;;;;;5026920;28;20057;-82
2022/01/27 00:07:33;;;;;;;43.40;16.98;;;1.20;99.90;;;;;;5036037;28;20064;-81
2022/01/27 00:12:57;;;;;;;40.72;16.13;;;1.00;99.90;;;;;;4992003;28;20033;-82
2022/01/27 00:15:30;;;;;;;42.47;17.05;;;3.10;99.90;;;;;;5035345;28;20021;-81
2022/01/27 00:18:00;;;;;;;39.15;15.40;;;2.40;99.90;;;;;;5035397;28;20155;-83
2022/01/27 00:20:26;;;;;;;41.25;16.77;;;1.10;99.90;;;;;;5029532;28;20021;-82
2022/01/27 00:22:52;;;;;;;37.05;15.60;;;1.30;99.90;;;;;;5029942;28;20034;-83
2022/01/27 00:25:17;;;;;;;38.60;16.20;;;2.30;99.90;;;;;;5037738;28;20048;-82
2022/01/27 00:27:43;;;;;;;33.33;15.20;;;1.00;99.90;;;;;;5033440;28;20021;-82
2022/01/27 00:30:10;;;;;;;37.20;17.42;;;3.10;99.90;;;;;;5029394;28;20060;-81
2022/01/27 00:32:36;;;;;;;31.67;13.63;;;1.00;99.90;;;;;;5033457;28;20056;-82
2022/01/27 00:35:04;;;;;;;26.80;11.63;;;0.90;99.90;;;;;;5031036;28;20018;-81
2022/01/27 00:37:30;;;;;;;36.38;15.23;;;1.10;99.90;;;;;;5031010;28;20033;-82
2022/01/27 00:39:56;;;;;;;39.97;16.00;;;1.10;99.90;;;;;;5031963;28;20112;-82
2022/01/27 00:42:23;;;;;;;35.88;14.98;;;1.00;99.90;;;;;;5031806;28;20022;-81
2022/01/27 00:44:49;;;;;;;40.00;16.52;;;-0.80;99.90;;;;;;5029387;28;20525;-85
2022/01/27 00:47:15;;;;;;;37.22;15.98;;;1.20;99.90;;;;;;5029122;28;20026;-81
2022/01/27 00:49:41;;;;;;;41.03;17.40;;;1.10;99.90;;;;;;5027135;28;20030;-81
2022/01/27 00:52:11;;;;;;;38.20;16.48;;;2.10;99.90;;;;;;5029592;28;20022;-84
2022/01/27 00:54:37;;;;;;;40.13;16.73;;;2.80;99.90;;;;;;5014460;28;20087;-79
2022/01/27 00:59:46;;;;;;;35.88;16.38;;;0.90;99.90;;;;;;5033982;28;20033;-82
2022/01/27 01:02:25;;;;;;;37.42;16.23;;;0.90;99.90;;;;;;5031847;28;20017;-83
2022/01/27 01:05:05;;;;;;;33.03;14.60;;;2.00;99.90;;;;;;5035547;28;20034;-81
2022/01/27 01:07:35;;;;;;;36.90;15.07;;;1.00;99.90;;;;;;5033153;28;20033;-83
2022/01/27 01:15:20;;;;;;;37.03;14.57;;;2.80;99.90;;;;;;5034477;28;20044;-82
2022/01/27 01:20:43;;;;;;;34.55;15.90;;;1.00;99.90;;;;;;5024425;28;20044;-80
2022/01/27 01:33:56;;;;;;;37.50;15.90;;;1.00;99.90;;;;;;5027020;28;20037;-82
2022/01/27 01:36:37;;;;;;;29.48;13.23;;;1.00;99.90;;;;;;5033580;28;20022;-81
2022/01/27 01:39:06;;;;;;;33.20;14.50;;;1.10;99.90;;;;;;5028185;28;20053;-83
2022/01/27 01:41:33;;;;;;;32.92;15.45;;;1.10;99.90;;;;;;5028920;28;20057;-83
2022/01/27 01:44:00;;;;;;;35.10;13.93;;;1.00;99.90;;;;;;5033379;28;20055;-82
2022/01/27 01:46:26;;;;;;;30.55;15.18;;;2.80;99.90;;;;;;5032292;28;20044;-80
2022/01/27 01:48:51;;;;;;;27.75;12.52;;;1.20;99.90;;;;;;5033142;28;20124;-80
2022/01/27 01:51:32;;;;;;;31.33;13.50;;;1.20;99.90;;;;;;5033614;28;20022;-81
2022/01/27 01:53:58;;;;;;;29.70;13.05;;;1.20;99.90;;;;;;5030388;28;20029;-84
2022/01/27 01:56:24;;;;;;;29.33;13.25;;;1.30;99.90;;;;;;5029672;28;20868;-82
2022/01/27 01:58:50;;;;;;;26.67;12.02;;;1.20;99.90;;;;;;5025680;28;20114;-82
2022/01/27 02:01:18;;;;;;;29.92;12.93;;;1.30;99.90;;;;;;5033753;28;20168;-81
2022/01/27 02:03:45;;;;;;;35.60;14.90;;;1.50;99.90;;;;;;5030935;28;20033;-81
2022/01/27 02:06:19;;;;;;;34.83;14.00;;;1.10;99.90;;;;;;5032070;28;20536;-82
2022/01/27 02:09:08;;;;;;;29.48;13.55;;;1.10;99.90;;;;;;5024866;28;20025;-82
2022/01/27 02:19:54;;;;;;;35.97;15.07;;;1.00;99.90;;;;;;5031138;28;20448;-84
2022/01/27 02:22:21;;;;;;;39.55;16.65;;;1.00;99.90;;;;;;5031328;28;20124;-81
2022/01/27 02:24:48;;;;;;;42.03;15.82;;;1.20;99.90;;;;;;5030022;28;20040;-85
2022/01/27 02:27:18;;;;;;;37.63;15.32;;;1.00;99.90;;;;;;5032304;28;20040;-82
2022/01/27 02:29:44;;;;;;;31.90;13.00;;;0.90;99.90;;;;;;5016192;28;20087;-81
2022/01/27 02:32:13;;;;;;;37.00;15.05;;;0.90;99.90;;;;;;5023583;28;20099;-80
2022/01/27 02:34:39;;;;;;;45.70;15.77;;;0.90;99.90;;;;;;5029690;28;20022;-80
2022/01/27 02:37:06;;;;;;;46.15;16.35;;;1.50;99.90;;;;;;5032982;28;20097;-82
2022/01/27 02:39:32;;;;;;;39.17;15.90;;;1.60;99.90;;;;;;5035106;28;20152;-83
2022/01/27 02:42:21;;;;;;;43.17;16.65;;;0.80;99.90;;;;;;5030063;28;20048;-83
2022/01/27 02:44:51;;;;;;;39.78;14.80;;;0.80;99.90;;;;;;5034962;28;20037;-80
2022/01/27 02:47:17;;;;;;;41.50;15.63;;;0.80;99.90;;;;;;5034639;28;20030;-81
2022/01/27 02:49:44;;;;;;;34.95;14.07;;;2.70;99.90;;;;;;5033257;28;20033;-82
2022/01/27 02:52:10;;;;;;;38.30;14.07;;;0.90;99.90;;;;;;5029856;28;20036;-81
2022/01/27 02:54:36;;;;;;;40.15;14.75;;;0.90;99.90;;;;;;5028566;28;20029;-81
2022/01/27 02:57:02;;;;;;;42.97;16.70;;;1.00;99.90;;;;;;5033351;28;20378;-81
2022/01/27 02:59:28;;;;;;;39.45;15.80;;;0.90;99.90;;;;;;5026573;28;20026;-81
2022/01/27 03:01:55;;;;;;;40.40;15.13;;;1.30;99.90;;;;;;5048394;28;20067;-82
2022/01/27 03:04:23;;;;;;;36.38;14.75;;;0.90;99.90;;;;;;5033605;28;20056;-82
2022/01/27 03:06:49;;;;;;;36.28;13.50;;;1.10;99.90;;;;;;5030401;28;20049;-79
2022/01/27 03:09:15;;;;;;;37.90;14.68;;;2.00;99.90;;;;;;5032518;28;20106;-83
2022/01/27 03:11:45;;;;;;;37.78;14.00;;;1.10;99.90;;;;;;5034220;28;20037;-84
2022/01/27 03:14:16;;;;;;;37.38;14.63;;;1.00;99.90;;;;;;5024424;28;20030;-82
2022/01/27 03:16:42;;;;;;;38.13;14.15;;;1.00;99.90;;;;;;5034043;28;20080;-82
2022/01/27 03:19:08;;;;;;;38.60;14.88;;;0.90;99.90;;;;;;5037268;28;20025;-81
2022/01/27 03:21:35;;;;;;;43.80;15.57;;;1.00;99.90;;;;;;5031355;28;20112;-81
2022/01/27 03:24:01;;;;;;;40.85;14.48;;;0.90;99.90;;;;;;5032789;28;20528;-81
2022/01/27 03:26:27;;;;;;;43.05;14.43;;;1.00;99.90;;;;;;5035629;28;20037;-83
2022/01/27 03:31:22;;;;;;;44.97;14.75;;;1.00;99.90;;;;;;5014679;28;20058;-83
2022/01/27 03:33:48;;;;;;;44.13;14.38;;;1.00;99.90;;;;;;5014306;28;20334;-83
2022/01/27 03:36:14;;;;;;;45.40;15.00;;;1.00;99.90;;;;;;5015269;28;20025;-85
2022/01/27 03:38:41;;;;;;;40.65;14.73;;;1.00;99.90;;;;;;5020361;28;20018;-83
2022/01/27 03:41:08;;;;;;;37.45;12.75;;;1.10;99.90;;;;;;5020412;28;20034;-85
2022/01/27 03:43:35;;;;;;;38.05;13.40;;;1.10;99.90;;;;;;5018662;28;20037;-82
2022/01/27 03:46:02;;;;;;;34.03;13.68;;;1.20;99.90;;;;;;5023482;28;20072;-84
2022/01/27 03:48:27;;;;;;;36.47;13.15;;;1.20;99.90;;;;;;5023074;28;20112;-82
2022/01/27 03:50:53;;;;;;;41.58;15.65;;;1.20;99.90;;;;;;5020583;28;20029;-82
2022/01/27 03:53:18;;;;;;;37.30;13.35;;;1.20;99.90;;;;;;5021924;28;20029;-84
2022/01/27 03:55:45;;;;;;;36.95;13.48;;;1.10;99.90;;;;;;5015911;28;20038;-82
2022/01/27 03:58:11;;;;;;;34.53;12.40;;;1.10;99.90;;;;;;5050563;28;20022;-83
2022/01/27 04:00:38;;;;;;;37.90;14.00;;;1.00;99.90;;;;;;5022407;28;20017;-82
2022/01/27 04:03:09;;;;;;;37.88;14.15;;;1.10;99.90;;;;;;5021720;28;20034;-82
2022/01/27 04:05:39;;;;;;;33.95;12.55;;;1.10;99.90;;;;;;5023213;28;20026;-83
2022/01/27 04:08:07;;;;;;;36.90;12.88;;;1.20;99.90;;;;;;5021041;28;20069;-81
2022/01/27 04:10:33;;;;;;;43.50;14.25;;;1.20;99.90;;;;;;5020873;28;20026;-82
2022/01/27 04:12:59;;;;;;;37.15;12.93;;;1.20;99.90;;;;;;5019835;28;20034;-81
2022/01/27 04:15:25;;;;;;;39.00;14.27;;;1.70;99.90;;;;;;5022315;28;20045;-83
2022/01/27 04:17:51;;;;;;;40.80;14.13;;;1.30;99.90;;;;;;5022604;28;20029;-84
2022/01/27 04:20:18;;;;;;;37.08;13.10;;;1.30;99.90;;;;;;5023160;28;20025;-83
2022/01/27 04:22:43;;;;;;;36.00;12.68;;;1.30;99.90;;;;;;5022331;28;20026;-82
2022/01/27 04:25:11;;;;;;;28.58;11.25;;;1.30;99.90;;;;;;5020277;28;20031;-82
2022/01/27 04:27:39;;;;;;;32.35;12.30;;;1.30;99.90;;;;;;5019699;28;20040;-82
2022/01/27 04:30:11;;;;;;;38.70;12.70;;;1.40;99.90;;;;;;5019983;28;20030;-82
2022/01/27 04:32:44;;;;;;;29.52;11.38;;;1.30;99.90;;;;;;5018227;28;20030;-82
2022/01/27 04:35:14;;;;;;;32.10;11.52;;;1.40;99.90;;;;;;5019584;28;20037;-83
2022/01/27 04:37:50;;;;;;;24.10;10.60;;;1.40;99.90;;;;;;5022309;28;20022;-82
2022/01/27 04:40:17;;;;;;;21.92;9.52;;;1.40;99.90;;;;;;5021764;28;20029;-83
2022/01/27 04:42:54;;;;;;;19.77;9.00;;;1.50;99.90;;;;;;5018253;28;20041;-84
2022/01/27 04:45:24;;;;;;;24.13;9.45;;;1.50;99.90;;;;;;5019663;28;20033;-83
2022/01/27 04:47:54;;;;;;;20.77;9.20;;;1.50;99.90;;;;;;5021166;28;20093;-82
2022/01/27 04:50:20;;;;;;;22.90;9.63;;;1.60;99.90;;;;;;5007124;28;20072;-82
2022/01/27 04:52:48;;;;;;;23.90;9.45;;;1.50;99.90;;;;;;5017164;28;20038;-83
2022/01/27 04:55:16;;;;;;;18.70;8.45;;;2.50;99.90;;;;;;5013208;28;20048;-82
2022/01/27 04:57:44;;;;;;;16.70;8.23;;;1.60;99.90;;;;;;5017754;28;20578;-82
2022/01/27 05:00:13;;;;;;;20.95;9.00;;;1.60;99.90;;;;;;5012133;28;20022;-82
2022/01/27 05:02:45;;;;;;;21.77;9.18;;;1.50;99.90;;;;;;5018302;28;20030;-81
2022/01/27 05:05:11;;;;;;;19.95;8.38;;;1.50;99.90;;;;;;5019703;28;20038;-83
2022/01/27 05:07:38;;;;;;;22.08;8.95;;;3.40;99.90;;;;;;5016325;28;20030;-83
2022/01/27 05:10:11;;;;;;;16.52;7.82;;;3.10;99.90;;;;;;5019623;28;20533;-82
2022/01/27 05:12:49;;;;;;;18.08;7.35;;;1.50;99.90;;;;;;5001627;28;20021;-84
2022/01/27 05:15:15;;;;;;;19.63;7.95;;;1.70;99.90;;;;;;5016401;28;20026;-84
2022/01/27 05:17:40;;;;;;;19.65;8.40;;;1.80;99.90;;;;;;5015229;28;20034;-83
2022/01/27 05:20:06;;;;;;;15.23;7.70;;;1.70;99.90;;;;;;5015816;28;20026;-82
2022/01/27 05:22:32;;;;;;;18.63;8.20;;;1.90;99.90;;;;;;5015345;28;20034;-82
2022/01/27 05:24:58;;;;;;;17.63;7.45;;;2.30;99.90;;;;;;5013672;28;20037;-83
2022/01/27 05:27:24;;;;;;;19.83;8.27;;;1.50;99.90;;;;;;5013129;28;20065;-81
2022/01/27 05:29:51;;;;;;;19.58;8.00;;;1.50;99.90;;;;;;5028885;28;20034;-82
2022/01/27 05:32:18;;;;;;;17.50;7.60;;;1.60;99.90;;;;;;5018004;28;20045;-82
2022/01/27 05:34:44;;;;;;;19.02;8.50;;;1.60;99.90;;;;;;5015451;28;20018;-82
2022/01/27 05:37:09;;;;;;;18.95;9.25;;;1.70;99.90;;;;;;5013116;28;20022;-84
2022/01/27 05:39:35;;;;;;;17.70;7.85;;;2.20;99.90;;;;;;5010760;28;20033;-82
2022/01/27 05:42:01;;;;;;;18.73;7.95;;;0.70;99.90;;;;;;5013814;28;20134;-83
2022/01/27 05:44:27;;;;;;;21.70;9.63;;;0.60;99.90;;;;;;5015206;28;20030;-82
2022/01/27 05:46:52;;;;;;;18.65;8.60;;;1.60;99.90;;;;;;5013821;28;20037;-83
2022/01/27 05:49:18;;;;;;;19.98;8.75;;;1.20;99.90;;;;;;5019417;28;20049;-82
2022/01/27 05:51:43;;;;;;;20.42;9.48;;;3.30;99.90;;;;;;5013252;28;20024;-83
2022/01/27 05:54:10;;;;;;;24.42;10.30;;;3.20;99.90;;;;;;5022444;28;20033;-82
2022/01/27 05:56:36;;;;;;;27.40;10.18;;;3.70;99.90;;;;;;5016171;28;20036;-84
2022/01/27 05:59:02;;;;;;;22.92;9.20;;;3.00;99.90;;;;;;5017981;28;20037;-81
2022/01/27 06:01:28;;;;;;;21.52;9.02;;;1.30;99.90;;;;;;5029870;28;20045;-84
2022/01/27 06:03:54;;;;;;;21.38;9.40;;;1.80;99.90;;;;;;5011373;28;20026;-83
2022/01/27 06:06:20;;;;;;;22.85;8.80;;;2.70;99.90;;;;;;5019153;28;20384;-83
2022/01/27 06:08:46;;;;;;;21.00;9.10;;;3.20;99.90;;;;;;5017353;28;20029;-84
2022/01/27 06:11:12;;;;;;;20.90;9.27;;;1.50;99.90;;;;;;5040046;28;20387;-83
2022/01/27 06:13:38;;;;;;;21.33;10.23;;;1.50;99.90;;;;;;5013706;28;20022;-82
2022/01/27 06:16:09;;;;;;;19.75;8.27;;;;;;;;;;5014847;28;20026;-81
2022/01/27 06:18:36;;;;;;;23.25;9.52;;;1.30;99.90;;;;;;5005814;28;20054;-82
2022/01/27 06:21:04;;;;;;;20.98;9.50;;;;;;;;;;5011120;28;20041;-82
2022/01/27 06:23:34;;;;;;;20.67;9.55;;;1.30;99.90;;;;;;5016733;28;20597;-80
2022/01/27 06:26:01;;;;;;;23.13;9.43;;;1.30;99.90;;;;;;5007814;28;20040;-83
2022/01/27 06:28:27;;;;;;;19.88;8.40;;;4.30;99.90;;;;;;5027015;28;20106;-83
2022/01/27 06:30:53;;;;;;;24.65;9.30;;;;;;;;;;5010997;28;20053;-82
2022/01/27 06:33:19;;;;;;;20.63;8.30;;;;;;;;;;5000602;28;20026;-80
2022/01/27 06:35:45;;;;;;;20.27;9.18;;;1.40;99.90;;;;;;5009881;28;20035;-81
2022/01/27 06:38:10;;;;;;;19.80;8.68;;;3.70;99.90;;;;;;5014225;28;20045;-85
2022/01/27 06:40:37;;;;;;;26.50;10.02;;;;;;;;;;5016401;28;20034;-84
2022/01/27 06:43:02;;;;;;;20.52;8.75;;;1.40;99.90;;;;;;5016227;28;20033;-83
2022/01/27 06:45:28;;;;;;;20.98;8.35;;;;;;;;;;5014156;28;20045;-82
2022/01/27 06:47:55;;;;;;;20.90;9.15;;;;;;;;;;5032079;28;20060;-82
2022/01/27 06:50:21;;;;;;;17.88;7.90;;;;;;;;;;5020000;28;20034;-84
2022/01/27 06:52:46;;;;;;;19.52;8.05;;;1.40;99.90;;;;;;5012166;28;20068;-82
2022/01/27 06:55:14;;;;;;;19.23;8.43;;;1.40;99.90;;;;;;5013522;28;20104;-82
2022/01/27 06:57:39;;;;;;;16.95;7.05;;;1.40;99.90;;;;;;5007956;28;20088;-82
2022/01/27 07:00:09;;;;;;;20.25;8.77;;;1.40;99.90;;;;;;5007029;28;20100;-81
2022/01/27 07:02:35;;;;;;;18.55;8.57;;;1.40;99.90;;;;;;5016241;28;20038;-83
2022/01/27 07:05:01;;;;;;;18.42;7.90;;;1.40;99.90;;;;;;5012200;28;20032;-81
2022/01/27 07:07:28;;;;;;;31.35;9.20;;;1.40;99.90;;;;;;5012678;28;20034;-82
2022/01/27 07:09:54;;;;;;;23.25;8.25;;;;;;;;;;5013594;28;20064;-82
2022/01/27 07:12:20;;;;;;;17.70;8.20;;;1.40;99.90;;;;;;5014244;28;20034;-82
2022/01/27 07:14:46;;;;;;;24.27;8.95;;;;;;;;;;5012787;28;20547;-82
2022/01/27 07:17:14;;;;;;;23.73;9.32;;;;;;;;;;5011549;28;20086;-81
2022/01/27 07:19:40;;;;;;;23.10;10.55;;;;;;;;;;5017586;28;20040;-80
2022/01/27 07:22:05;;;;;;;24.63;10.63;;;1.40;99.90;;;;;;5020232;28;20025;-81
2022/01/27 07:24:31;;;;;;;23.73;10.05;;;1.30;99.90;;;;;;5011620;28;20141;-82
2022/01/27 07:26:57;;;;;;;31.02;10.75;;;;;;;;;;5014150;28;20041;-82
2022/01/27 07:29:23;;;;;;;26.73;10.65;;;;;;;;;;5030178;28;20040;-82
2022/01/27 07:31:49;;;;;;;26.08;10.60;;;1.20;99.90;;;;;;5017259;28;20100;-82
2022/01/27 07:34:15;;;;;;;25.80;10.50;;;2.00;99.90;;;;;;5016560;28;20034;-82
2022/01/27 07:36:41;;;;;;;25.88;10.57;;;1.40;99.90;;;;;;5015460;28;20041;-82
2022/01/27 07:39:14;;;;;;;29.00;10.85;;;1.30;99.90;;;;;;5014716;28;20025;-84
2022/01/27 07:41:40;;;;;;;29.48;11.88;;;1.30;99.90;;;;;;5017711;28;20037;-82
2022/01/27 07:44:06;;;;;;;26.45;10.98;;;;;;;;;;5014403;28;20034;-82
2022/01/27 07:46:32;;;;;;;25.70;11.18;;;;;;;;;;5023932;28;20059;-82
2022/01/27 07:48:58;;;;;;;28.35;11.52;;;;;;;;;;5014198;28;20029;-83
2022/01/27 07:51:26;;;;;;;28.38;12.30;;;;;;;;;;5031227;28;20600;-85
2022/01/27 07:53:52;;;;;;;26.63;11.00;;;;;;;;;;5027369;28;20037;-82
2022/01/27 07:56:18;;;;;;;29.25;11.13;;;;;;;;;;5013798;28;20033;-87
2022/01/27 07:58:44;;;;;;;25.88;11.00;;;;;;;;;;5012973;28;20040;-83
2022/01/27 08:01:10;;;;;;;30.00;11.93;;;;;;;;;;5013769;28;20046;-87
2022/01/27 08:03:37;;;;;;;25.75;10.20;;;1.30;99.90;;;;;;5021302;28;20140;-84
2022/01/27 08:06:07;;;;;;;22.15;10.50;;;1.40;99.90;;;;;;5018803;28;20472;-84
2022/01/27 08:08:33;;;;;;;23.40;9.98;;;;;;;;;;5017748;28;20106;-83
2022/01/27 08:10:59;;;;;;;21.92;10.23;;;;;;;;;;5019087;28;20119;-82
2022/01/27 08:13:27;;;;;;;25.88;10.00;;;1.50;99.90;;;;;;5014971;28;20030;-83
2022/01/27 08:15:53;;;;;;;26.08;10.55;;;1.40;99.90;;;;;;5019944;28;20424;-83
2022/01/27 08:18:19;;;;;;;25.50;10.05;;;;;;;;;;5019510;28;20025;-82
2022/01/27 08:20:47;;;;;;;24.63;10.93;;;;;;;;;;5018426;28;20109;-83
2022/01/27 08:23:14;;;;;;;23.80;10.20;;;1.30;99.90;;;;;;5017984;28;20038;-85
2022/01/27 08:25:41;;;;;;;26.45;9.95;;;1.40;99.90;;;;;;5016296;28;20065;-80
2022/01/27 08:28:18;;;;;;;30.13;11.52;;;;;;;;;;5022507;28;20041;-85
2022/01/27 08:30:48;;;;;;;27.45;10.45;;;;;;;;;;5016687;28;20125;-81
2022/01/27 08:33:16;;;;;;;20.15;8.85;;;;;;;;;;5018189;28;20030;-81
2022/01/27 08:35:43;;;;;;;27.45;10.95;;;;;;;;;;5044427;28;20060;-83
2022/01/27 08:38:09;;;;;;;26.92;9.82;;;;;;;;;;5018898;28;20018;-82
2022/01/27 08:40:35;;;;;;;25.40;10.48;;;1.40;99.90;;;;;;5021993;28;20049;-84
2022/01/27 08:43:01;;;;;;;27.73;10.27;;;;;;;;;;5020631;28;20102;-82
2022/01/27 08:45:28;;;;;;;23.42;10.63;;;;;;;;;;5022496;28;20026;-84
2022/01/27 08:47:57;;;;;;;30.10;12.02;;;1.20;99.90;;;;;;5026067;28;20052;-84
2022/01/27 08:50:24;;;;;;;25.77;11.07;;;;;;;;;;5029538;28;20018;-86
2022/01/27 08:52:51;;;;;;;29.55;11.15;;;;;;;;;;5026406;28;20040;-82
2022/01/27 08:55:20;;;;;;;31.65;12.23;;;1.40;99.90;;;;;;5021160;28;20045;-84
2022/01/27 08:57:46;;;;;;;27.95;11.23;;;;;;;;;;5025824;28;20022;-84
2022/01/27 09:00:19;;;;;;;29.38;11.18;;;1.30;99.90;;;;;;5030508;28;20056;-84
2022/01/27 09:02:45;;;;;;;24.98;10.57;;;;;;;;;;5021878;28;20065;-82
2022/01/27 09:05:11;;;;;;;28.38;12.52;;;;;;;;;;5020695;28;20026;-82
2022/01/27 09:07:37;;;;;;;24.60;10.48;;;;;;;;;;5019893;28;20038;-84
2022/01/27 09:10:04;;;;;;;26.27;11.82;;;1.60;99.90;;;;;;5021403;28;20017;-84
2022/01/27 09:12:31;;;;;;;30.88;12.55;;;;;;;;;;5023289;28;20078;-83
2022/01/27 09:14:58;;;;;;;32.28;13.35;;;;;;;;;;5024563;28;20030;-84
2022/01/27 09:17:26;;;;;;;33.45;13.18;;;;;;;;;;5026197;28;20025;-82
2022/01/27 09:19:52;;;;;;;31.00;13.93;;;;;;;;;;5029590;28;20037;-84
2022/01/27 09:22:23;;;;;;;31.42;13.00;;;;;;;;;;5034072;28;20010;-84
2022/01/27 09:24:57;;;;;;;31.10;13.90;;;;;;;;;;5035199;28;20058;-85
2022/01/27 09:27:23;;;;;;;30.30;12.98;;;;;;;;;;5031728;28;20045;-85
2022/01/27 09:29:49;;;;;;;35.42;13.32;;;;;;;;;;5032455;28;20050;-83
2022/01/27 09:32:16;;;;;;;37.03;13.02;;;;;;;;;;5027549;28;20022;-84
2022/01/27 09:34:43;;;;;;;34.67;12.93;;;1.00;99.90;;;;;;5027484;28;20193;-83
2022/01/27 09:37:09;;;;;;;33.20;12.73;;;;;;;;;;5025335;28;20030;-82
2022/01/27 09:39:38;;;;;;;37.45;14.73;;;1.10;99.90;;;;;;5018548;28;20064;-82
2022/01/27 09:42:06;;;;;;;34.30;13.25;;;1.10;99.90;;;;;;5026518;28;20037;-86
2022/01/27 09:44:34;;;;;;;33.70;13.63;;;1.10;99.90;;;;;;5026721;28;20034;-82
2022/01/27 09:47:05;;;;;;;29.80;12.55;;;1.20;99.90;;;;;;5026717;28;20053;-82
2022/01/27 09:49:37;;;;;;;30.65;12.63;;;;;;;;;;5020496;28;20025;-82
2022/01/27 09:52:04;;;;;;;27.88;11.73;;;1.30;99.90;;;;;;5024070;28;20057;-85
2022/01/27 09:54:30;;;;;;;28.05;12.27;;;;;;;;;;5025736;28;20057;-83
2022/01/27 09:56:56;;;;;;;32.20;12.00;;;;;;;;;;5026219;28;20164;-82
2022/01/27 09:59:23;;;;;;;28.40;11.50;;;1.30;99.90;;;;;;5022105;28;20057;-82
2022/01/27 10:01:57;;;;;;;28.95;11.25;;;1.40;99.90;;;;;;5023708;28;20042;-85
2022/01/27 10:04:26;;;;;;;25.88;11.65;;;;;;;;;;5026508;28;20038;-84
2022/01/27 10:06:58;;;;;;;28.15;11.18;;;1.50;99.90;;;;;;5024949;28;20044;-84
2022/01/27 10:09:29;;;;;;;27.20;11.65;;;;;;;;;;5028904;28;20034;-84
2022/01/27 10:11:55;;;;;;;28.67;11.20;;;;;;;;;;5060282;28;20034;-83
2022/01/27 10:14:26;;;;;;;27.63;11.90;;;1.50;99.90;;;;;;5025605;28;20054;-84
2022/01/27 10:17:07;;;;;;;25.88;10.65;;;1.60;99.90;;;;;;5027087;28;20026;-82
2022/01/27 10:19:36;;;;;;;;;;;1.50;99.90;;;;;;5023259;28;20040;-83
2022/01/27 10:22:10;;;;;;;25.38;10.63;;;1.50;99.90;;;;;;5027775;28;19912;-84
2022/01/27 10:24:37;;;;;;;25.33;11.40;;;1.20;99.90;;;;;;5020682;28;20180;-85
2022/01/27 10:27:45;;;;;;;32.55;12.48;;;1.40;99.90;;;;;;5016496;28;20025;-84
2022/01/27 10:33:00;;;;;;;29.80;11.75;;;1.60;99.90;;;;;;5023976;28;20068;-88
2022/01/27 10:35:27;;;;;;;27.60;11.85;;;1.60;99.90;;;;;;5020939;28;20030;-82
2022/01/27 10:38:09;;;;;;;35.63;12.63;;;1.50;99.90;;;;;;5022659;28;20037;-84
2022/01/27 10:40:41;;;;;;;29.10;12.30;;;3.10;99.90;;;;;;5019048;28;20026;-84
2022/01/27 10:43:11;;;;;;;32.70;11.73;;;1.50;99.90;;;;;;5014094;28;20036;-84
2022/01/27 10:46:00;;;;;;;33.17;12.90;;;1.50;99.90;;;;;;5019223;28;20084;-84
2022/01/27 10:48:30;;;;;;;32.72;12.63;;;;;;;;;;5022873;28;20041;-85
2022/01/27 10:51:15;;;;;;;30.38;12.57;;;;;;;;;;5025406;28;20034;-85
2022/01/27 10:53:56;;;;;;;27.52;12.30;;;1.50;99.90;;;;;;5027523;28;20029;-80
2022/01/27 10:56:28;;;;;;;32.00;13.18;;;1.50;99.90;;;;;;5020903;28;20040;-81
2022/01/27 10:58:57;;;;;;;27.77;11.82;;;1.60;99.90;;;;;;5016034;28;20022;-81
2022/01/27 11:01:36;;;;;;;25.58;10.93;;;1.60;99.90;;;;;;5023659;28;20034;-81
2022/01/27 11:04:07;;;;;;;30.77;13.40;;;1.70;99.90;;;;;;5021962;28;20030;-84
2022/01/27 11:06:34;;;;;;;27.48;12.25;;;;;;;;;;5017644;28;20033;-83
2022/01/27 11:09:08;;;;;;;30.85;11.98;;;1.60;99.90;;;;;;5040155;28;20036;-83
2022/01/27 11:11:36;;;;;;;36.92;13.80;;;1.50;99.90;;;;;;5008404;28;20038;-82
2022/01/27 11:14:03;;;;;;;33.88;13.55;;;3.70;99.90;;;;;;5024808;28;20075;-81
2022/01/27 11:16:35;;;;;;;33.55;13.32;;;1.50;99.90;;;;;;5048038;28;20026;-82
2022/01/27 11:22:02;;;;;;;32.83;12.52;;;0.60;99.90;;;;;;5017444;28;20503;-82
2022/01/27 11:27:37;;;;;;;27.50;11.90;;;1.70;99.90;;;;;;4980533;28;20057;-83
2022/01/27 11:30:10;;;;;;;29.88;12.63;;;1.70;99.90;;;;;;5017787;28;20038;-85
2022/01/27 11:32:36;;;;;;;29.70;12.60;;;1.80;99.90;;;;;;5022547;28;20026;-80
2022/01/27 11:35:28;;;;;;;33.58;12.00;;;1.80;99.90;;;;;;5023764;28;20025;-85
2022/01/27 11:38:01;;;;;;;28.02;11.80;;;2.00;99.90;;;;;;4989317;28;20056;-82
2022/01/27 11:40:39;;;;;;;32.33;14.57;;;2.10;99.90;;;;;;5020349;28;20030;-82
2022/01/27 11:43:08;;;;;;;27.30;12.85;;;;;;;;;;5016955;28;20510;-85
2022/01/27 11:45:36;;;;;;;29.17;12.90;;;2.10;99.90;;;;;;5017463;28;20025;-82
2022/01/27 11:48:10;;;;;;;30.73;12.50;;;2.10;99.90;;;;;;5022675;28;20086;-84
2022/01/27 11:50:50;;;;;;;28.05;11.70;;;2.00;99.90;;;;;;5024979;28;20240;-84
2022/01/27 11:53:43;;;;;;;29.88;13.55;;;2.20;99.90;;;;;;5025651;28;20026;-82
2022/01/27 11:56:23;;;;;;;35.17;13.90;;;2.20;99.90;;;;;;5026833;28;20025;-81
2022/01/27 11:58:56;;;;;;;31.40;12.18;;;2.20;99.90;;;;;;5023448;28;20034;-84
2022/01/27 12:01:26;;;;;;;34.42;13.43;;;2.30;99.90;;;;;;5027031;28;20078;-82
2022/01/27 12:04:08;;;;;;;32.72;12.75;;;2.30;99.90;;;;;;5022185;28;20030;-82
2022/01/27 12:06:34;;;;;;;33.53;13.00;;;;;;;;;;5021667;28;20029;-82
2022/01/27 12:09:24;;;;;;;33.15;13.80;;;2.40;99.90;;;;;;5054599;28;20085;-82
2022/01/27 12:12:11;;;;;;;29.50;13.07;;;2.40;99.90;;;;;;5015066;28;20048;-83
2022/01/27 12:14:39;;;;;;;32.78;12.18;;;;;;;;;;5021394;28;20483;-82
2022/01/27 12:17:12;;;;;;;32.03;13.25;;;2.20;99.90;;;;;;5023286;28;20021;-81
2022/01/27 12:19:54;;;;;;;37.13;16.40;;;2.30;99.90;;;;;;5018790;28;20026;-81
2022/01/27 12:22:26;;;;;;;33.42;14.00;;;2.10;99.90;;;;;;5024179;28;20395;-80
2022/01/27 12:24:56;;;;;;;30.95;13.85;;;2.10;99.90;;;;;;5021550;28;20026;-81
2022/01/27 12:27:24;;;;;;;34.10;15.05;;;2.10;99.90;;;;;;5025539;28;20042;-84
2022/01/27 12:29:56;;;;;;;32.28;14.18;;;1.90;99.90;;;;;;5020625;28;20496;-85
2022/01/27 12:32:40;;;;;;;38.60;14.00;;;0.00;99.90;;;;;;5026336;28;20467;-83
2022/01/27 12:35:12;;;;;;;38.35;14.57;;;2.00;99.90;;;;;;5025396;28;20032;-83
2022/01/27 12:37:43;;;;;;;34.83;14.90;;;2.00;99.90;;;;;;5019815;28;20049;-81
2022/01/27 12:40:33;;;;;;;40.22;16.88;;;2.00;99.90;;;;;;5020222;28;20045;-82
2022/01/27 12:43:03;;;;;;;33.70;15.00;;;1.90;99.90;;;;;;5017643;28;20034;-83
2022/01/27 12:45:36;;;;;;;41.42;15.82;;;1.80;99.90;;;;;;5023546;28;20026;-82
2022/01/27 12:48:08;;;;;;;40.13;16.50;;;1.80;99.90;;;;;;5022330;28;20066;-82
2022/01/27 12:50:36;;;;;;;39.00;16.90;;;;;;;;;;5028080;28;20033;-83
2022/01/27 12:53:09;;;;;;;41.80;16.42;;;1.90;99.90;;;;;;5024112;28;20049;-87
2022/01/27 12:55:38;;;;;;;36.08;14.68;;;1.80;99.90;;;;;;5003144;28;20137;-81
2022/01/27 12:58:09;;;;;;;34.95;14.60;;;1.80;99.90;;;;;;5014192;28;20077;-82
2022/01/27 13:00:43;;;;;;;36.85;15.23;;;1.90;99.90;;;;;;5020594;28;20025;-82
2022/01/27 13:03:10;;;;;;;35.85;13.88;;;2.00;99.90;;;;;;5019395;28;20034;-83
2022/01/27 13:05:38;;;;;;;32.08;14.07;;;2.10;99.90;;;;;;5019552;28;20040;-83
2022/01/27 13:08:09;;;;;;;30.42;13.57;;;2.20;99.90;;;;;;5014420;28;20049;-83
2022/01/27 13:10:35;;;;;;;31.00;13.38;;;2.20;99.90;;;;;;5015162;28;20042;-82
2022/01/27 13:13:16;;;;;;;37.22;15.00;;;4.60;99.90;;;;;;5014734;28;20117;-82
2022/01/27 13:15:43;;;;;;;30.95;14.45;;;2.10;99.90;;;;;;5014664;28;20118;-83
2022/01/27 13:18:21;;;;;;;33.15;15.10;;;2.10;99.90;;;;;;5012733;28;20033;-82
2022/01/27 13:20:53;;;;;;;37.03;14.80;;;;;;;;;;5015063;28;20060;-84
2022/01/27 13:23:27;;;;;;;35.63;14.98;;;;;;;;;;5017027;28;20030;-82
2022/01/27 13:26:01;;;;;;;28.75;14.18;;;2.20;99.90;;;;;;5013770;28;20036;-83
2022/01/27 13:28:29;;;;;;;37.47;16.02;;;2.40;99.90;;;;;;5033547;28;20030;-83
2022/01/27 13:30:59;;;;;;;34.00;15.40;;;2.50;99.90;;;;;;5016531;28;20034;-81
2022/01/27 13:33:29;;;;;;;32.03;14.43;;;2.50;99.90;;;;;;5017320;28;20044;-86
2022/01/27 13:35:58;;;;;;;34.13;14.95;;;2.30;99.90;;;;;;5018715;28;22234;-83
2022/01/27 13:38:38;;;;;;;31.00;13.55;;;2.40;99.90;;;;;;5019003;28;20037;-80
2022/01/27 13:41:25;;;;;;;35.22;14.52;;;2.40;99.90;;;;;;5016048;28;20022;-83
2022/01/27 13:43:59;;;;;;;42.25;16.85;;;2.30;99.90;;;;;;5020670;28;20022;-83
2022/01/27 13:46:44;;;;;;;33.83;15.57;;;2.40;99.90;;;;;;5021948;28;20024;-82
2022/01/27 13:49:25;;;;;;;35.92;14.95;;;2.40;99.90;;;;;;5044991;28;20032;-83
2022/01/27 13:51:57;;;;;;;31.25;14.65;;;2.30;99.90;;;;;;5016678;28;20097;-82
2022/01/27 13:54:30;;;;;;;28.75;13.93;;;2.40;99.90;;;;;;5008628;28;20045;-82
2022/01/27 13:57:25;;;;;;;34.25;15.43;;;2.50;99.90;;;;;;5018986;28;20033;-81